sensor_id;sensor_type;location;lat;lon;timestamp;P1;durP1;ratioP1;P2;durP2;ratioP2
3747;SDS011;1889;50.058;8.688;2023-02-16T00:00:27;45.12;;;24.95;;
3747;SDS011;1889;50.058;8.688;2023-02-16T00:02:57;42.60;;;23.85;;
3747;SDS011;1889;50.058;8.688;2023-02-16T00:05:27;41.98;;;23.77;;
3747;SDS011;1889;50.058;8.688;2023-02-16T00:07:59;42.58;;;23.67;;
3747;SDS011;1889;50.058;8.688;2023-02-16T00:10:30;40.00;;;22.98;;
3747;SDS011;1889;50.058;8.688;2023-02-16T00:13:16;43.23;;;24.00;;
3747;SDS011;1889;50.058;8.688;2023-02-16T00:16:18;39.88;;;22.25;;
3747;SDS011;1889;50.058;8.688;2023-02-16T00:18:43;40.25;;;22.20;;
3747;SDS011;1889;50.058;8.688;2023-02-16T00:21:13;41.55;;;23.70;;
3747;SDS011;1889;50.058;8.688;2023-02-16T00:23:43;39.67;;;22.98;;
3747;SDS011;1889;50.058;8.688;2023-02-16T00:26:18;41.25;;;24.35;;
3747;SDS011;1889;50.058;8.688;2023-02-16T00:28:54;49.25;;;26.35;;
3747;SDS011;1889;50.058;8.688;2023-02-16T00:31:28;44.63;;;25.00;;
3747;SDS011;1889;50.058;8.688;2023-02-16T00:34:24;45.75;;;23.90;;
3747;SDS011;1889;50.058;8.688;2023-02-16T00:36:44;47.48;;;24.60;;
3747;SDS011;1889;50.058;8.688;2023-02-16T00:39:13;42.65;;;24.45;;
3747;SDS011;1889;50.058;8.688;2023-02-16T00:41:43;43.98;;;23.38;;
3747;SDS011;1889;50.058;8.688;2023-02-16T00:44:34;47.03;;;23.35;;
3747;SDS011;1889;50.058;8.688;2023-02-16T00:47:18;43.73;;;23.47;;
3747;SDS011;1889;50.058;8.688;2023-02-16T00:49:53;49.00;;;24.80;;
3747;SDS011;1889;50.058;8.688;2023-02-16T00:55:05;47.45;;;23.12;;
3747;SDS011;1889;50.058;8.688;2023-02-16T00:57:40;53.23;;;26.57;;
3747;SDS011;1889;50.058;8.688;2023-02-16T01:00:21;51.50;;;26.73;;
3747;SDS011;1889;50.058;8.688;2023-02-16T01:02:54;46.13;;;24.70;;
3747;SDS011;1889;50.058;8.688;2023-02-16T01:05:24;52.15;;;26.65;;
3747;SDS011;1889;50.058;8.688;2023-02-16T01:07:54;42.53;;;23.32;;
3747;SDS011;1889;50.058;8.688;2023-02-16T01:10:41;46.68;;;24.50;;
3747;SDS011;1889;50.058;8.688;2023-02-16T01:13:28;44.70;;;23.67;;
3747;SDS011;1889;50.058;8.688;2023-02-16T01:15:59;48.23;;;23.65;;
3747;SDS011;1889;50.058;8.688;2023-02-16T01:18:29;46.33;;;23.18;;
3747;SDS011;1889;50.058;8.688;2023-02-16T01:20:58;45.58;;;25.15;;
3747;SDS011;1889;50.058;8.688;2023-02-16T01:23:27;46.48;;;24.45;;
3747;SDS011;1889;50.058;8.688;2023-02-16T01:25:57;51.23;;;25.05;;
3747;SDS011;1889;50.058;8.688;2023-02-16T01:28:26;48.87;;;25.70;;
3747;SDS011;1889;50.058;8.688;2023-02-16T01:30:55;43.68;;;23.45;;
3747;SDS011;1889;50.058;8.688;2023-02-16T01:33:24;51.65;;;24.37;;
3747;SDS011;1889;50.058;8.688;2023-02-16T01:35:54;52.48;;;25.85;;
3747;SDS011;1889;50.058;8.688;2023-02-16T01:38:25;55.98;;;27.52;;
3747;SDS011;1889;50.058;8.688;2023-02-16T01:40:59;45.95;;;24.30;;
3747;SDS011;1889;50.058;8.688;2023-02-16T01:43:43;51.83;;;25.37;;
3747;SDS011;1889;50.058;8.688;2023-02-16T01:46:15;50.58;;;26.00;;
3747;SDS011;1889;50.058;8.688;2023-02-16T01:48:46;46.60;;;25.52;;
3747;SDS011;1889;50.058;8.688;2023-02-16T01:51:17;51.68;;;25.50;;
3747;SDS011;1889;50.058;8.688;2023-02-16T01:53:49;47.48;;;24.40;;
3747;SDS011;1889;50.058;8.688;2023-02-16T01:59:08;54.25;;;25.90;;
3747;SDS011;1889;50.058;8.688;2023-02-16T02:01:54;59.42;;;25.37;;
3747;SDS011;1889;50.058;8.688;2023-02-16T02:04:28;60.50;;;27.65;;
3747;SDS011;1889;50.058;8.688;2023-02-16T02:10:30;50.73;;;25.57;;
3747;SDS011;1889;50.058;8.688;2023-02-16T02:13:35;46.95;;;23.90;;
3747;SDS011;1889;50.058;8.688;2023-02-16T02:16:17;52.73;;;23.85;;
3747;SDS011;1889;50.058;8.688;2023-02-16T02:18:49;52.53;;;23.98;;
3747;SDS011;1889;50.058;8.688;2023-02-16T02:21:34;42.70;;;23.18;;
3747;SDS011;1889;50.058;8.688;2023-02-16T02:27:37;40.00;;;21.23;;
3747;SDS011;1889;50.058;8.688;2023-02-16T02:38:23;44.03;;;22.40;;
3747;SDS011;1889;50.058;8.688;2023-02-16T02:41:03;43.87;;;22.13;;
3747;SDS011;1889;50.058;8.688;2023-02-16T02:43:41;47.70;;;23.47;;
3747;SDS011;1889;50.058;8.688;2023-02-16T02:46:15;43.65;;;23.07;;
3747;SDS011;1889;50.058;8.688;2023-02-16T02:48:49;47.62;;;22.93;;
3747;SDS011;1889;50.058;8.688;2023-02-16T02:51:18;43.55;;;22.45;;
3747;SDS011;1889;50.058;8.688;2023-02-16T02:57:16;44.93;;;23.42;;
3747;SDS011;1889;50.058;8.688;2023-02-16T03:00:09;46.02;;;23.70;;
3747;SDS011;1889;50.058;8.688;2023-02-16T03:03:03;49.60;;;24.67;;
3747;SDS011;1889;50.058;8.688;2023-02-16T03:05:37;41.15;;;21.50;;
3747;SDS011;1889;50.058;8.688;2023-02-16T03:08:09;45.08;;;22.07;;
3747;SDS011;1889;50.058;8.688;2023-02-16T03:10:49;48.08;;;24.12;;
3747;SDS011;1889;50.058;8.688;2023-02-16T03:13:38;38.73;;;22.13;;
3747;SDS011;1889;50.058;8.688;2023-02-16T03:16:19;47.05;;;23.47;;
3747;SDS011;1889;50.058;8.688;2023-02-16T03:18:50;46.35;;;23.90;;
3747;SDS011;1889;50.058;8.688;2023-02-16T03:21:38;46.40;;;23.83;;
3747;SDS011;1889;50.058;8.688;2023-02-16T03:24:26;40.75;;;22.60;;
3747;SDS011;1889;50.058;8.688;2023-02-16T03:27:17;40.67;;;21.73;;
3747;SDS011;1889;50.058;8.688;2023-02-16T03:30:06;42.55;;;20.75;;
3747;SDS011;1889;50.058;8.688;2023-02-16T03:32:37;43.80;;;23.02;;
3747;SDS011;1889;50.058;8.688;2023-02-16T03:35:07;41.80;;;21.30;;
3747;SDS011;1889;50.058;8.688;2023-02-16T03:37:39;41.73;;;21.10;;
3747;SDS011;1889;50.058;8.688;2023-02-16T03:40:10;42.45;;;22.45;;
3747;SDS011;1889;50.058;8.688;2023-02-16T03:43:01;43.75;;;22.17;;
3747;SDS011;1889;50.058;8.688;2023-02-16T03:45:32;39.98;;;21.52;;
3747;SDS011;1889;50.058;8.688;2023-02-16T03:48:03;44.38;;;21.37;;
3747;SDS011;1889;50.058;8.688;2023-02-16T03:50:33;36.75;;;19.15;;
3747;SDS011;1889;50.058;8.688;2023-02-16T03:53:02;38.45;;;20.40;;
3747;SDS011;1889;50.058;8.688;2023-02-16T03:55:44;33.88;;;18.92;;
3747;SDS011;1889;50.058;8.688;2023-02-16T03:58:11;33.60;;;19.65;;
3747;SDS011;1889;50.058;8.688;2023-02-16T04:00:42;44.65;;;20.72;;
3747;SDS011;1889;50.058;8.688;2023-02-16T04:03:11;36.08;;;19.42;;
3747;SDS011;1889;50.058;8.688;2023-02-16T04:05:41;32.83;;;19.80;;
3747;SDS011;1889;50.058;8.688;2023-02-16T04:08:11;35.98;;;20.32;;
3747;SDS011;1889;50.058;8.688;2023-02-16T04:10:40;42.00;;;21.05;;
3747;SDS011;1889;50.058;8.688;2023-02-16T04:13:10;36.25;;;19.15;;
3747;SDS011;1889;50.058;8.688;2023-02-16T04:15:39;37.73;;;20.37;;
3747;SDS011;1889;50.058;8.688;2023-02-16T04:18:08;37.05;;;20.60;;
3747;SDS011;1889;50.058;8.688;2023-02-16T04:20:38;35.40;;;18.95;;
3747;SDS011;1889;50.058;8.688;2023-02-16T04:23:07;35.78;;;21.52;;
3747;SDS011;1889;50.058;8.688;2023-02-16T04:25:36;38.13;;;21.00;;
3747;SDS011;1889;50.058;8.688;2023-02-16T04:28:06;32.88;;;19.62;;
3747;SDS011;1889;50.058;8.688;2023-02-16T04:30:35;32.95;;;18.98;;
3747;SDS011;1889;50.058;8.688;2023-02-16T04:33:04;31.33;;;18.90;;
3747;SDS011;1889;50.058;8.688;2023-02-16T04:35:34;33.15;;;20.15;;
3747;SDS011;1889;50.058;8.688;2023-02-16T04:38:03;33.13;;;19.25;;
3747;SDS011;1889;50.058;8.688;2023-02-16T04:40:32;34.08;;;19.05;;
3747;SDS011;1889;50.058;8.688;2023-02-16T04:43:02;32.10;;;19.20;;
3747;SDS011;1889;50.058;8.688;2023-02-16T04:45:31;34.50;;;19.25;;
3747;SDS011;1889;50.058;8.688;2023-02-16T04:48:00;29.92;;;17.98;;
3747;SDS011;1889;50.058;8.688;2023-02-16T04:50:30;31.45;;;17.90;;
3747;SDS011;1889;50.058;8.688;2023-02-16T04:52:59;30.88;;;18.62;;
3747;SDS011;1889;50.058;8.688;2023-02-16T04:55:28;34.53;;;20.10;;
3747;SDS011;1889;50.058;8.688;2023-02-16T04:57:58;31.37;;;17.65;;
3747;SDS011;1889;50.058;8.688;2023-02-16T05:00:27;30.82;;;18.42;;
3747;SDS011;1889;50.058;8.688;2023-02-16T05:02:56;32.15;;;20.10;;
3747;SDS011;1889;50.058;8.688;2023-02-16T05:05:26;30.57;;;17.73;;
3747;SDS011;1889;50.058;8.688;2023-02-16T05:07:55;29.30;;;17.80;;
3747;SDS011;1889;50.058;8.688;2023-02-16T05:10:24;27.27;;;17.73;;
3747;SDS011;1889;50.058;8.688;2023-02-16T05:12:59;31.23;;;18.15;;
3747;SDS011;1889;50.058;8.688;2023-02-16T05:15:42;30.62;;;17.37;;
3747;SDS011;1889;50.058;8.688;2023-02-16T05:18:11;34.20;;;19.52;;
3747;SDS011;1889;50.058;8.688;2023-02-16T05:20:41;27.37;;;16.85;;
3747;SDS011;1889;50.058;8.688;2023-02-16T05:23:27;26.15;;;16.90;;
3747;SDS011;1889;50.058;8.688;2023-02-16T05:25:57;28.87;;;17.73;;
3747;SDS011;1889;50.058;8.688;2023-02-16T05:28:26;28.95;;;17.67;;
3747;SDS011;1889;50.058;8.688;2023-02-16T05:30:55;30.92;;;17.15;;
3747;SDS011;1889;50.058;8.688;2023-02-16T05:33:25;31.45;;;17.95;;
3747;SDS011;1889;50.058;8.688;2023-02-16T05:35:54;29.18;;;17.98;;
3747;SDS011;1889;50.058;8.688;2023-02-16T05:38:23;30.05;;;17.80;;
3747;SDS011;1889;50.058;8.688;2023-02-16T05:40:53;27.58;;;16.65;;
3747;SDS011;1889;50.058;8.688;2023-02-16T05:43:22;25.72;;;17.27;;
3747;SDS011;1889;50.058;8.688;2023-02-16T05:45:51;28.05;;;17.52;;
3747;SDS011;1889;50.058;8.688;2023-02-16T05:48:21;31.80;;;18.30;;
3747;SDS011;1889;50.058;8.688;2023-02-16T05:50:52;31.82;;;17.62;;
3747;SDS011;1889;50.058;8.688;2023-02-16T05:53:21;27.70;;;17.10;;
3747;SDS011;1889;50.058;8.688;2023-02-16T05:55:50;29.60;;;17.57;;
3747;SDS011;1889;50.058;8.688;2023-02-16T05:58:20;29.40;;;17.87;;
3747;SDS011;1889;50.058;8.688;2023-02-16T06:00:49;29.42;;;17.30;;
3747;SDS011;1889;50.058;8.688;2023-02-16T06:03:19;27.87;;;17.55;;
3747;SDS011;1889;50.058;8.688;2023-02-16T06:05:52;25.95;;;15.68;;
3747;SDS011;1889;50.058;8.688;2023-02-16T06:08:25;30.85;;;16.67;;
3747;SDS011;1889;50.058;8.688;2023-02-16T06:10:55;27.98;;;16.65;;
3747;SDS011;1889;50.058;8.688;2023-02-16T06:13:25;28.42;;;16.82;;
3747;SDS011;1889;50.058;8.688;2023-02-16T06:15:55;26.97;;;15.65;;
3747;SDS011;1889;50.058;8.688;2023-02-16T06:18:24;28.75;;;17.75;;
3747;SDS011;1889;50.058;8.688;2023-02-16T06:20:55;27.27;;;17.00;;
3747;SDS011;1889;50.058;8.688;2023-02-16T06:23:24;27.35;;;15.83;;
3747;SDS011;1889;50.058;8.688;2023-02-16T06:25:53;25.35;;;15.32;;
3747;SDS011;1889;50.058;8.688;2023-02-16T06:28:23;24.90;;;15.32;;
3747;SDS011;1889;50.058;8.688;2023-02-16T06:30:52;27.60;;;16.85;;
3747;SDS011;1889;50.058;8.688;2023-02-16T06:33:21;27.70;;;17.75;;
3747;SDS011;1889;50.058;8.688;2023-02-16T06:35:51;27.98;;;17.62;;
3747;SDS011;1889;50.058;8.688;2023-02-16T06:38:20;25.82;;;16.75;;
3747;SDS011;1889;50.058;8.688;2023-02-16T06:40:51;23.18;;;15.98;;
3747;SDS011;1889;50.058;8.688;2023-02-16T06:43:20;26.80;;;17.12;;
3747;SDS011;1889;50.058;8.688;2023-02-16T06:45:50;25.27;;;15.48;;
3747;SDS011;1889;50.058;8.688;2023-02-16T06:48:19;27.87;;;17.15;;
3747;SDS011;1889;50.058;8.688;2023-02-16T06:50:48;28.95;;;17.77;;
3747;SDS011;1889;50.058;8.688;2023-02-16T06:53:18;23.22;;;15.43;;
3747;SDS011;1889;50.058;8.688;2023-02-16T06:55:48;26.42;;;14.80;;
3747;SDS011;1889;50.058;8.688;2023-02-16T06:58:18;20.97;;;13.25;;
3747;SDS011;1889;50.058;8.688;2023-02-16T07:00:47;21.70;;;13.72;;
3747;SDS011;1889;50.058;8.688;2023-02-16T07:03:17;22.42;;;13.45;;
3747;SDS011;1889;50.058;8.688;2023-02-16T07:05:47;22.58;;;14.03;;
3747;SDS011;1889;50.058;8.688;2023-02-16T07:08:17;30.45;;;15.35;;
3747;SDS011;1889;50.058;8.688;2023-02-16T07:10:46;28.77;;;14.98;;
3747;SDS011;1889;50.058;8.688;2023-02-16T07:13:16;24.02;;;14.40;;
3747;SDS011;1889;50.058;8.688;2023-02-16T07:15:45;22.90;;;14.47;;
3747;SDS011;1889;50.058;8.688;2023-02-16T07:18:15;20.77;;;13.65;;
3747;SDS011;1889;50.058;8.688;2023-02-16T07:20:44;20.88;;;14.00;;
3747;SDS011;1889;50.058;8.688;2023-02-16T07:23:14;19.90;;;12.85;;
3747;SDS011;1889;50.058;8.688;2023-02-16T07:25:45;21.40;;;13.32;;
3747;SDS011;1889;50.058;8.688;2023-02-16T07:28:14;22.75;;;13.95;;
3747;SDS011;1889;50.058;8.688;2023-02-16T07:30:43;20.45;;;13.20;;
3747;SDS011;1889;50.058;8.688;2023-02-16T07:33:16;21.02;;;13.72;;
3747;SDS011;1889;50.058;8.688;2023-02-16T07:35:47;27.70;;;13.78;;
3747;SDS011;1889;50.058;8.688;2023-02-16T07:38:17;20.05;;;13.80;;
3747;SDS011;1889;50.058;8.688;2023-02-16T07:40:46;27.93;;;16.17;;
3747;SDS011;1889;50.058;8.688;2023-02-16T07:43:15;25.10;;;14.75;;
3747;SDS011;1889;50.058;8.688;2023-02-16T07:45:45;23.50;;;14.90;;
3747;SDS011;1889;50.058;8.688;2023-02-16T07:48:15;22.55;;;14.65;;
3747;SDS011;1889;50.058;8.688;2023-02-16T07:50:45;21.90;;;14.45;;
3747;SDS011;1889;50.058;8.688;2023-02-16T07:53:14;21.82;;;13.03;;
3747;SDS011;1889;50.058;8.688;2023-02-16T07:55:44;26.95;;;14.40;;
3747;SDS011;1889;50.058;8.688;2023-02-16T07:58:13;23.40;;;15.95;;
3747;SDS011;1889;50.058;8.688;2023-02-16T08:00:44;25.02;;;15.48;;
3747;SDS011;1889;50.058;8.688;2023-02-16T08:03:14;26.55;;;15.38;;
3747;SDS011;1889;50.058;8.688;2023-02-16T08:05:43;27.48;;;16.23;;
3747;SDS011;1889;50.058;8.688;2023-02-16T08:08:12;29.10;;;15.55;;
3747;SDS011;1889;50.058;8.688;2023-02-16T08:10:42;26.85;;;15.95;;
3747;SDS011;1889;50.058;8.688;2023-02-16T08:13:11;29.65;;;15.40;;
3747;SDS011;1889;50.058;8.688;2023-02-16T08:15:43;27.77;;;16.07;;
3747;SDS011;1889;50.058;8.688;2023-02-16T08:18:13;28.45;;;16.20;;
3747;SDS011;1889;50.058;8.688;2023-02-16T08:20:42;27.27;;;16.62;;
3747;SDS011;1889;50.058;8.688;2023-02-16T08:23:11;29.80;;;17.10;;
3747;SDS011;1889;50.058;8.688;2023-02-16T08:25:40;30.43;;;17.65;;
3747;SDS011;1889;50.058;8.688;2023-02-16T08:28:10;28.57;;;15.80;;
3747;SDS011;1889;50.058;8.688;2023-02-16T08:30:41;30.60;;;18.17;;
3747;SDS011;1889;50.058;8.688;2023-02-16T08:33:11;29.57;;;16.62;;
3747;SDS011;1889;50.058;8.688;2023-02-16T08:35:40;26.93;;;15.90;;
3747;SDS011;1889;50.058;8.688;2023-02-16T08:38:10;29.45;;;17.20;;
3747;SDS011;1889;50.058;8.688;2023-02-16T08:40:39;29.63;;;17.67;;
3747;SDS011;1889;50.058;8.688;2023-02-16T08:43:10;33.00;;;18.10;;
3747;SDS011;1889;50.058;8.688;2023-02-16T08:45:45;31.50;;;17.85;;
3747;SDS011;1889;50.058;8.688;2023-02-16T08:48:15;29.32;;;16.85;;
3747;SDS011;1889;50.058;8.688;2023-02-16T08:50:45;28.55;;;18.05;;
3747;SDS011;1889;50.058;8.688;2023-02-16T08:53:23;30.62;;;17.05;;
3747;SDS011;1889;50.058;8.688;2023-02-16T08:55:54;30.68;;;17.95;;
3747;SDS011;1889;50.058;8.688;2023-02-16T08:58:25;31.33;;;18.10;;
3747;SDS011;1889;50.058;8.688;2023-02-16T09:00:57;32.55;;;18.75;;
3747;SDS011;1889;50.058;8.688;2023-02-16T09:03:30;36.17;;;20.88;;
3747;SDS011;1889;50.058;8.688;2023-02-16T09:06:01;31.55;;;17.98;;
3747;SDS011;1889;50.058;8.688;2023-02-16T09:08:32;31.15;;;17.48;;
3747;SDS011;1889;50.058;8.688;2023-02-16T09:11:04;30.50;;;17.65;;
3747;SDS011;1889;50.058;8.688;2023-02-16T09:13:35;28.60;;;17.57;;
3747;SDS011;1889;50.058;8.688;2023-02-16T09:16:13;31.48;;;17.95;;
3747;SDS011;1889;50.058;8.688;2023-02-16T09:18:39;30.23;;;17.45;;
3747;SDS011;1889;50.058;8.688;2023-02-16T09:21:12;31.85;;;18.48;;
3747;SDS011;1889;50.058;8.688;2023-02-16T09:23:44;26.48;;;17.00;;
3747;SDS011;1889;50.058;8.688;2023-02-16T09:26:15;30.62;;;17.25;;
3747;SDS011;1889;50.058;8.688;2023-02-16T09:28:47;28.75;;;16.80;;
3747;SDS011;1889;50.058;8.688;2023-02-16T09:31:18;29.82;;;18.00;;
3747;SDS011;1889;50.058;8.688;2023-02-16T09:34:08;26.85;;;17.15;;
3747;SDS011;1889;50.058;8.688;2023-02-16T09:36:30;28.95;;;17.17;;
3747;SDS011;1889;50.058;8.688;2023-02-16T09:39:00;26.57;;;16.60;;
3747;SDS011;1889;50.058;8.688;2023-02-16T09:41:31;26.55;;;15.53;;
3747;SDS011;1889;50.058;8.688;2023-02-16T09:49:50;24.07;;;15.00;;
3747;SDS011;1889;50.058;8.688;2023-02-16T09:55:07;27.45;;;16.00;;
3747;SDS011;1889;50.058;8.688;2023-02-16T09:57:55;27.55;;;16.70;;
3747;SDS011;1889;50.058;8.688;2023-02-16T10:03:39;23.73;;;15.63;;
3747;SDS011;1889;50.058;8.688;2023-02-16T10:06:26;28.20;;;15.83;;
3747;SDS011;1889;50.058;8.688;2023-02-16T10:09:00;26.42;;;16.67;;
3747;SDS011;1889;50.058;8.688;2023-02-16T10:11:35;25.72;;;16.10;;
3747;SDS011;1889;50.058;8.688;2023-02-16T10:14:13;26.95;;;17.27;;
3747;SDS011;1889;50.058;8.688;2023-02-16T10:16:45;29.18;;;16.95;;
3747;SDS011;1889;50.058;8.688;2023-02-16T10:19:20;25.50;;;17.00;;
3747;SDS011;1889;50.058;8.688;2023-02-16T10:21:52;26.35;;;16.60;;
3747;SDS011;1889;50.058;8.688;2023-02-16T10:24:23;26.10;;;15.53;;
3747;SDS011;1889;50.058;8.688;2023-02-16T10:27:01;25.90;;;16.55;;
3747;SDS011;1889;50.058;8.688;2023-02-16T10:29:34;26.23;;;16.32;;
3747;SDS011;1889;50.058;8.688;2023-02-16T10:34:45;26.27;;;17.27;;
3747;SDS011;1889;50.058;8.688;2023-02-16T10:40:20;29.57;;;17.20;;
3747;SDS011;1889;50.058;8.688;2023-02-16T10:43:20;30.65;;;16.97;;
3747;SDS011;1889;50.058;8.688;2023-02-16T10:46:01;24.65;;;15.45;;
3747;SDS011;1889;50.058;8.688;2023-02-16T10:48:31;26.62;;;17.65;;
3747;SDS011;1889;50.058;8.688;2023-02-16T10:51:25;32.20;;;18.65;;
3747;SDS011;1889;50.058;8.688;2023-02-16T10:53:44;26.97;;;16.75;;
3747;SDS011;1889;50.058;8.688;2023-02-16T10:56:21;25.20;;;16.12;;
3747;SDS011;1889;50.058;8.688;2023-02-16T10:58:50;24.23;;;15.72;;
3747;SDS011;1889;50.058;8.688;2023-02-16T11:01:21;29.20;;;18.55;;
3747;SDS011;1889;50.058;8.688;2023-02-16T11:03:56;28.65;;;18.48;;
3747;SDS011;1889;50.058;8.688;2023-02-16T11:06:26;26.05;;;17.10;;
3747;SDS011;1889;50.058;8.688;2023-02-16T11:08:56;28.62;;;18.82;;
3747;SDS011;1889;50.058;8.688;2023-02-16T11:11:28;36.42;;;19.77;;
3747;SDS011;1889;50.058;8.688;2023-02-16T11:14:34;29.20;;;17.92;;
3747;SDS011;1889;50.058;8.688;2023-02-16T11:16:47;27.13;;;18.48;;
3747;SDS011;1889;50.058;8.688;2023-02-16T11:19:22;32.25;;;19.92;;
3747;SDS011;1889;50.058;8.688;2023-02-16T11:21:53;28.67;;;18.57;;
3747;SDS011;1889;50.058;8.688;2023-02-16T11:27:06;31.65;;;18.57;;
3747;SDS011;1889;50.058;8.688;2023-02-16T11:29:43;26.75;;;17.17;;
3747;SDS011;1889;50.058;8.688;2023-02-16T11:32:13;29.05;;;18.87;;
3747;SDS011;1889;50.058;8.688;2023-02-16T11:34:50;37.98;;;22.82;;
3747;SDS011;1889;50.058;8.688;2023-02-16T11:37:25;28.30;;;18.00;;
3747;SDS011;1889;50.058;8.688;2023-02-16T11:39:58;47.13;;;24.40;;
3747;SDS011;1889;50.058;8.688;2023-02-16T11:42:39;65.05;;;35.90;;
3747;SDS011;1889;50.058;8.688;2023-02-16T11:45:21;27.93;;;18.67;;
3747;SDS011;1889;50.058;8.688;2023-02-16T11:47:52;35.38;;;21.90;;
3747;SDS011;1889;50.058;8.688;2023-02-16T11:50:26;29.55;;;18.87;;
3747;SDS011;1889;50.058;8.688;2023-02-16T11:52:57;30.27;;;19.15;;
3747;SDS011;1889;50.058;8.688;2023-02-16T11:55:42;48.33;;;30.35;;
3747;SDS011;1889;50.058;8.688;2023-02-16T11:58:14;41.55;;;26.00;;
3747;SDS011;1889;50.058;8.688;2023-02-16T12:01:03;31.12;;;20.17;;
3747;SDS011;1889;50.058;8.688;2023-02-16T12:06:08;28.73;;;18.12;;
3747;SDS011;1889;50.058;8.688;2023-02-16T12:08:44;28.42;;;19.35;;
3747;SDS011;1889;50.058;8.688;2023-02-16T12:19:41;31.23;;;18.50;;
3747;SDS011;1889;50.058;8.688;2023-02-16T12:22:22;36.15;;;19.75;;
3747;SDS011;1889;50.058;8.688;2023-02-16T12:28:15;28.32;;;19.55;;
3747;SDS011;1889;50.058;8.688;2023-02-16T12:36:45;28.62;;;19.60;;
3747;SDS011;1889;50.058;8.688;2023-02-16T12:39:36;31.93;;;20.37;;
3747;SDS011;1889;50.058;8.688;2023-02-16T12:45:13;31.68;;;20.45;;
3747;SDS011;1889;50.058;8.688;2023-02-16T12:50:53;28.35;;;19.00;;
3747;SDS011;1889;50.058;8.688;2023-02-16T12:53:29;31.90;;;20.48;;
3747;SDS011;1889;50.058;8.688;2023-02-16T12:56:04;29.12;;;19.42;;
3747;SDS011;1889;50.058;8.688;2023-02-16T12:58:29;27.25;;;19.70;;
3747;SDS011;1889;50.058;8.688;2023-02-16T13:01:03;29.63;;;19.98;;
3747;SDS011;1889;50.058;8.688;2023-02-16T13:03:49;29.48;;;19.70;;
3747;SDS011;1889;50.058;8.688;2023-02-16T13:12:13;30.82;;;20.45;;
3747;SDS011;1889;50.058;8.688;2023-02-16T13:14:44;25.85;;;17.95;;
3747;SDS011;1889;50.058;8.688;2023-02-16T13:17:18;30.40;;;19.15;;
3747;SDS011;1889;50.058;8.688;2023-02-16T13:19:49;27.85;;;19.20;;
3747;SDS011;1889;50.058;8.688;2023-02-16T13:22:25;26.57;;;18.90;;
3747;SDS011;1889;50.058;8.688;2023-02-16T13:25:19;32.73;;;21.12;;
3747;SDS011;1889;50.058;8.688;2023-02-16T13:28:07;30.02;;;19.42;;
3747;SDS011;1889;50.058;8.688;2023-02-16T13:36:26;31.10;;;19.17;;
3747;SDS011;1889;50.058;8.688;2023-02-16T13:42:00;29.98;;;20.25;;
3747;SDS011;1889;50.058;8.688;2023-02-16T13:44:50;31.80;;;19.07;;
3747;SDS011;1889;50.058;8.688;2023-02-16T13:47:33;28.60;;;19.73;;
3747;SDS011;1889;50.058;8.688;2023-02-16T13:50:00;30.97;;;19.62;;
3747;SDS011;1889;50.058;8.688;2023-02-16T13:52:33;29.00;;;20.02;;
3747;SDS011;1889;50.058;8.688;2023-02-16T13:55:06;29.20;;;19.45;;
3747;SDS011;1889;50.058;8.688;2023-02-16T14:05:48;29.57;;;20.10;;
3747;SDS011;1889;50.058;8.688;2023-02-16T14:08:29;29.25;;;19.12;;
3747;SDS011;1889;50.058;8.688;2023-02-16T14:11:00;30.02;;;20.40;;
3747;SDS011;1889;50.058;8.688;2023-02-16T14:18:59;30.48;;;19.92;;
3747;SDS011;1889;50.058;8.688;2023-02-16T14:21:38;28.67;;;20.15;;
3747;SDS011;1889;50.058;8.688;2023-02-16T14:24:26;30.52;;;21.30;;
3747;SDS011;1889;50.058;8.688;2023-02-16T14:26:56;29.25;;;20.02;;
3747;SDS011;1889;50.058;8.688;2023-02-16T14:29:29;28.60;;;20.35;;
3747;SDS011;1889;50.058;8.688;2023-02-16T14:37:38;31.85;;;20.97;;
3747;SDS011;1889;50.058;8.688;2023-02-16T14:40:13;35.70;;;20.55;;
3747;SDS011;1889;50.058;8.688;2023-02-16T14:42:57;27.25;;;19.85;;
3747;SDS011;1889;50.058;8.688;2023-02-16T14:45:42;27.60;;;20.32;;
3747;SDS011;1889;50.058;8.688;2023-02-16T14:48:45;29.07;;;20.10;;
3747;SDS011;1889;50.058;8.688;2023-02-16T14:54:13;27.62;;;19.75;;
3747;SDS011;1889;50.058;8.688;2023-02-16T14:56:48;26.55;;;19.23;;
3747;SDS011;1889;50.058;8.688;2023-02-16T14:59:25;28.73;;;20.43;;
3747;SDS011;1889;50.058;8.688;2023-02-16T15:01:58;29.07;;;20.25;;
3747;SDS011;1889;50.058;8.688;2023-02-16T15:04:28;32.17;;;19.82;;
3747;SDS011;1889;50.058;8.688;2023-02-16T15:07:02;27.80;;;19.23;;
3747;SDS011;1889;50.058;8.688;2023-02-16T15:09:33;28.92;;;20.23;;
3747;SDS011;1889;50.058;8.688;2023-02-16T15:12:04;30.48;;;20.37;;
3747;SDS011;1889;50.058;8.688;2023-02-16T15:14:51;50.00;;;30.55;;
3747;SDS011;1889;50.058;8.688;2023-02-16T15:17:40;43.87;;;25.95;;
3747;SDS011;1889;50.058;8.688;2023-02-16T15:20:07;35.75;;;22.22;;
3747;SDS011;1889;50.058;8.688;2023-02-16T15:22:57;31.55;;;20.35;;
3747;SDS011;1889;50.058;8.688;2023-02-16T15:25:30;45.40;;;27.35;;
3747;SDS011;1889;50.058;8.688;2023-02-16T15:28:02;48.78;;;30.65;;
3747;SDS011;1889;50.058;8.688;2023-02-16T15:30:34;38.38;;;24.55;;
3747;SDS011;1889;50.058;8.688;2023-02-16T15:35:54;60.10;;;36.85;;
3747;SDS011;1889;50.058;8.688;2023-02-16T15:38:29;57.33;;;34.27;;
3747;SDS011;1889;50.058;8.688;2023-02-16T15:41:01;85.28;;;49.05;;
3747;SDS011;1889;50.058;8.688;2023-02-16T15:43:48;31.73;;;21.42;;
3747;SDS011;1889;50.058;8.688;2023-02-16T15:46:23;32.42;;;22.00;;
3747;SDS011;1889;50.058;8.688;2023-02-16T15:49:33;31.27;;;20.50;;
3747;SDS011;1889;50.058;8.688;2023-02-16T15:51:40;30.97;;;19.25;;
3747;SDS011;1889;50.058;8.688;2023-02-16T15:54:15;29.98;;;19.62;;
3747;SDS011;1889;50.058;8.688;2023-02-16T15:57:03;32.73;;;21.65;;
3747;SDS011;1889;50.058;8.688;2023-02-16T15:59:48;31.82;;;20.60;;
3747;SDS011;1889;50.058;8.688;2023-02-16T16:02:20;30.30;;;20.55;;
3747;SDS011;1889;50.058;8.688;2023-02-16T16:04:59;30.40;;;20.60;;
3747;SDS011;1889;50.058;8.688;2023-02-16T16:07:35;30.25;;;20.23;;
3747;SDS011;1889;50.058;8.688;2023-02-16T16:10:13;28.60;;;19.75;;
3747;SDS011;1889;50.058;8.688;2023-02-16T16:12:48;30.35;;;19.82;;
3747;SDS011;1889;50.058;8.688;2023-02-16T16:15:18;29.07;;;18.82;;
3747;SDS011;1889;50.058;8.688;2023-02-16T16:17:51;27.07;;;19.40;;
3747;SDS011;1889;50.058;8.688;2023-02-16T16:20:35;29.32;;;19.27;;
3747;SDS011;1889;50.058;8.688;2023-02-16T16:25:47;30.68;;;19.80;;
3747;SDS011;1889;50.058;8.688;2023-02-16T16:31:14;27.27;;;20.12;;
3747;SDS011;1889;50.058;8.688;2023-02-16T16:33:56;34.08;;;20.77;;
3747;SDS011;1889;50.058;8.688;2023-02-16T16:36:44;30.00;;;20.37;;
3747;SDS011;1889;50.058;8.688;2023-02-16T16:52:46;30.97;;;20.12;;
3747;SDS011;1889;50.058;8.688;2023-02-16T16:57:52;27.80;;;19.85;;
3747;SDS011;1889;50.058;8.688;2023-02-16T17:00:30;29.55;;;20.05;;
3747;SDS011;1889;50.058;8.688;2023-02-16T17:03:02;31.12;;;20.40;;
3747;SDS011;1889;50.058;8.688;2023-02-16T17:05:34;27.35;;;19.73;;
3747;SDS011;1889;50.058;8.688;2023-02-16T17:08:05;28.70;;;21.02;;
3747;SDS011;1889;50.058;8.688;2023-02-16T17:10:38;29.27;;;20.37;;
3747;SDS011;1889;50.058;8.688;2023-02-16T17:13:17;31.68;;;20.15;;
3747;SDS011;1889;50.058;8.688;2023-02-16T17:15:49;33.28;;;21.85;;
3747;SDS011;1889;50.058;8.688;2023-02-16T17:18:20;32.85;;;21.97;;
3747;SDS011;1889;50.058;8.688;2023-02-16T17:20:49;33.15;;;22.00;;
3747;SDS011;1889;50.058;8.688;2023-02-16T17:23:20;31.62;;;21.17;;
3747;SDS011;1889;50.058;8.688;2023-02-16T17:25:50;31.60;;;21.50;;
3747;SDS011;1889;50.058;8.688;2023-02-16T17:28:19;33.92;;;20.95;;
3747;SDS011;1889;50.058;8.688;2023-02-16T17:30:50;29.48;;;20.72;;
3747;SDS011;1889;50.058;8.688;2023-02-16T17:33:20;32.08;;;21.95;;
3747;SDS011;1889;50.058;8.688;2023-02-16T17:35:49;31.77;;;22.37;;
3747;SDS011;1889;50.058;8.688;2023-02-16T17:38:19;34.90;;;22.35;;